sensor_id;sensor_type;location;lat;lon;timestamp;P1;durP1;ratioP1;P2;durP2;ratioP2
3589;SDS011;1809;48.470;9.226;2023-08-12T00:01:47;6.77;;;6.07;;
3589;SDS011;1809;48.470;9.226;2023-08-12T00:04:12;6.83;;;6.23;;
3589;SDS011;1809;48.470;9.226;2023-08-12T00:06:39;6.50;;;6.00;;
3589;SDS011;1809;48.470;9.226;2023-08-12T00:09:05;7.80;;;6.57;;
3589;SDS011;1809;48.470;9.226;2023-08-12T00:11:30;10.83;;;7.40;;
3589;SDS011;1809;48.470;9.226;2023-08-12T00:13:56;6.10;;;5.60;;
3589;SDS011;1809;48.470;9.226;2023-08-12T00:16:21;9.73;;;5.80;;
3589;SDS011;1809;48.470;9.226;2023-08-12T00:18:46;6.87;;;6.20;;
3589;SDS011;1809;48.470;9.226;2023-08-12T00:21:12;6.27;;;5.67;;
3589;SDS011;1809;48.470;9.226;2023-08-12T00:23:38;9.50;;;6.00;;
3589;SDS011;1809;48.470;9.226;2023-08-12T00:26:05;7.63;;;6.63;;
3589;SDS011;1809;48.470;9.226;2023-08-12T00:28:31;7.30;;;6.60;;
3589;SDS011;1809;48.470;9.226;2023-08-12T00:30:57;7.47;;;6.20;;
3589;SDS011;1809;48.470;9.226;2023-08-12T00:33:22;6.53;;;6.00;;
3589;SDS011;1809;48.470;9.226;2023-08-12T00:35:47;6.17;;;5.67;;
3589;SDS011;1809;48.470;9.226;2023-08-12T00:38:13;10.60;;;5.50;;
3589;SDS011;1809;48.470;9.226;2023-08-12T00:40:38;6.87;;;5.33;;
3589;SDS011;1809;48.470;9.226;2023-08-12T00:43:03;6.10;;;5.63;;
3589;SDS011;1809;48.470;9.226;2023-08-12T00:45:29;8.90;;;6.53;;
3589;SDS011;1809;48.470;9.226;2023-08-12T00:47:54;5.30;;;4.80;;
3589;SDS011;1809;48.470;9.226;2023-08-12T00:50:19;8.77;;;5.83;;
3589;SDS011;1809;48.470;9.226;2023-08-12T00:52:45;6.07;;;5.60;;
3589;SDS011;1809;48.470;9.226;2023-08-12T00:55:10;6.97;;;6.30;;
3589;SDS011;1809;48.470;9.226;2023-08-12T00:57:36;20.23;;;6.60;;
3589;SDS011;1809;48.470;9.226;2023-08-12T01:00:02;6.77;;;6.13;;
3589;SDS011;1809;48.470;9.226;2023-08-12T01:02:28;7.50;;;6.03;;
3589;SDS011;1809;48.470;9.226;2023-08-12T01:04:54;6.57;;;5.93;;
3589;SDS011;1809;48.470;9.226;2023-08-12T01:07:19;8.60;;;5.60;;
3589;SDS011;1809;48.470;9.226;2023-08-12T01:09:45;7.27;;;6.63;;
3589;SDS011;1809;48.470;9.226;2023-08-12T01:12:27;6.73;;;6.23;;
3589;SDS011;1809;48.470;9.226;2023-08-12T01:17:33;8.37;;;6.00;;
3589;SDS011;1809;48.470;9.226;2023-08-12T01:20:02;8.57;;;6.60;;
3589;SDS011;1809;48.470;9.226;2023-08-12T01:22:37;6.57;;;5.97;;
3589;SDS011;1809;48.470;9.226;2023-08-12T01:25:04;8.57;;;6.13;;
3589;SDS011;1809;48.470;9.226;2023-08-12T01:27:30;7.07;;;6.47;;
3589;SDS011;1809;48.470;9.226;2023-08-12T01:29:56;7.97;;;7.23;;
3589;SDS011;1809;48.470;9.226;2023-08-12T01:32:27;6.17;;;5.67;;
3589;SDS011;1809;48.470;9.226;2023-08-12T01:35:06;6.30;;;5.90;;
3589;SDS011;1809;48.470;9.226;2023-08-12T01:37:37;10.33;;;6.80;;
3589;SDS011;1809;48.470;9.226;2023-08-12T01:40:04;7.57;;;6.83;;
3589;SDS011;1809;48.470;9.226;2023-08-12T01:42:34;7.40;;;5.60;;
3589;SDS011;1809;48.470;9.226;2023-08-12T01:45:01;6.10;;;5.50;;
3589;SDS011;1809;48.470;9.226;2023-08-12T01:47:27;6.63;;;6.03;;
3589;SDS011;1809;48.470;9.226;2023-08-12T01:49:53;8.40;;;6.03;;
3589;SDS011;1809;48.470;9.226;2023-08-12T01:52:19;10.30;;;5.70;;
3589;SDS011;1809;48.470;9.226;2023-08-12T01:54:44;7.00;;;6.27;;
3589;SDS011;1809;48.470;9.226;2023-08-12T01:57:09;8.70;;;6.83;;
3589;SDS011;1809;48.470;9.226;2023-08-12T01:59:35;6.90;;;6.20;;
3589;SDS011;1809;48.470;9.226;2023-08-12T02:02:00;14.47;;;6.30;;
3589;SDS011;1809;48.470;9.226;2023-08-12T02:04:26;7.00;;;6.50;;
3589;SDS011;1809;48.470;9.226;2023-08-12T02:06:52;6.50;;;5.90;;
3589;SDS011;1809;48.470;9.226;2023-08-12T02:09:18;6.70;;;6.10;;
3589;SDS011;1809;48.470;9.226;2023-08-12T02:11:43;6.67;;;6.00;;
3589;SDS011;1809;48.470;9.226;2023-08-12T02:14:09;8.10;;;6.40;;
3589;SDS011;1809;48.470;9.226;2023-08-12T02:16:34;6.90;;;6.30;;
3589;SDS011;1809;48.470;9.226;2023-08-12T02:18:59;6.67;;;6.07;;
3589;SDS011;1809;48.470;9.226;2023-08-12T02:21:25;7.07;;;6.53;;
3589;SDS011;1809;48.470;9.226;2023-08-12T02:23:50;6.73;;;6.03;;
3589;SDS011;1809;48.470;9.226;2023-08-12T02:26:16;8.10;;;7.30;;
3589;SDS011;1809;48.470;9.226;2023-08-12T02:28:41;7.70;;;5.93;;
3589;SDS011;1809;48.470;9.226;2023-08-12T02:31:06;10.70;;;6.00;;
3589;SDS011;1809;48.470;9.226;2023-08-12T02:33:31;6.80;;;6.17;;
3589;SDS011;1809;48.470;9.226;2023-08-12T02:35:57;7.17;;;6.37;;
3589;SDS011;1809;48.470;9.226;2023-08-12T02:38:22;6.40;;;5.67;;
3589;SDS011;1809;48.470;9.226;2023-08-12T02:40:48;8.73;;;6.63;;
3589;SDS011;1809;48.470;9.226;2023-08-12T02:43:14;7.23;;;5.80;;
3589;SDS011;1809;48.470;9.226;2023-08-12T02:45:40;6.53;;;6.03;;
3589;SDS011;1809;48.470;9.226;2023-08-12T02:48:05;6.97;;;6.40;;
3589;SDS011;1809;48.470;9.226;2023-08-12T02:50:31;6.77;;;6.10;;
3589;SDS011;1809;48.470;9.226;2023-08-12T02:52:56;6.97;;;5.50;;
3589;SDS011;1809;48.470;9.226;2023-08-12T02:55:22;9.00;;;6.37;;
3589;SDS011;1809;48.470;9.226;2023-08-12T02:57:47;6.20;;;5.70;;
3589;SDS011;1809;48.470;9.226;2023-08-12T03:00:12;9.90;;;5.77;;
3589;SDS011;1809;48.470;9.226;2023-08-12T03:02:41;7.87;;;6.30;;
3589;SDS011;1809;48.470;9.226;2023-08-12T03:05:07;7.93;;;6.40;;
3589;SDS011;1809;48.470;9.226;2023-08-12T03:07:33;7.53;;;6.80;;
3589;SDS011;1809;48.470;9.226;2023-08-12T03:09:58;9.60;;;6.10;;
3589;SDS011;1809;48.470;9.226;2023-08-12T03:12:23;8.80;;;6.17;;
3589;SDS011;1809;48.470;9.226;2023-08-12T03:14:49;6.40;;;5.90;;
3589;SDS011;1809;48.470;9.226;2023-08-12T03:17:14;6.60;;;6.00;;
3589;SDS011;1809;48.470;9.226;2023-08-12T03:19:39;5.77;;;5.30;;
3589;SDS011;1809;48.470;9.226;2023-08-12T03:22:05;5.90;;;5.50;;
3589;SDS011;1809;48.470;9.226;2023-08-12T03:24:30;6.33;;;5.73;;
3589;SDS011;1809;48.470;9.226;2023-08-12T03:26:55;6.67;;;5.60;;
3589;SDS011;1809;48.470;9.226;2023-08-12T03:29:20;5.70;;;5.20;;
3589;SDS011;1809;48.470;9.226;2023-08-12T03:31:46;6.07;;;5.67;;
3589;SDS011;1809;48.470;9.226;2023-08-12T03:34:11;10.43;;;6.10;;
3589;SDS011;1809;48.470;9.226;2023-08-12T03:36:36;6.03;;;5.53;;
3589;SDS011;1809;48.470;9.226;2023-08-12T03:39:02;6.87;;;5.33;;
3589;SDS011;1809;48.470;9.226;2023-08-12T03:41:27;8.67;;;5.60;;
3589;SDS011;1809;48.470;9.226;2023-08-12T03:43:52;6.53;;;5.33;;
3589;SDS011;1809;48.470;9.226;2023-08-12T03:46:18;9.53;;;6.30;;
3589;SDS011;1809;48.470;9.226;2023-08-12T03:48:44;9.50;;;6.60;;
3589;SDS011;1809;48.470;9.226;2023-08-12T03:51:09;6.80;;;6.10;;
3589;SDS011;1809;48.470;9.226;2023-08-12T03:53:34;6.43;;;5.83;;
3589;SDS011;1809;48.470;9.226;2023-08-12T03:56:00;8.73;;;6.37;;
3589;SDS011;1809;48.470;9.226;2023-08-12T03:58:25;6.50;;;5.87;;
3589;SDS011;1809;48.470;9.226;2023-08-12T04:00:50;7.53;;;6.10;;
3589;SDS011;1809;48.470;9.226;2023-08-12T04:03:16;7.13;;;5.60;;
3589;SDS011;1809;48.470;9.226;2023-08-12T04:05:50;9.70;;;6.10;;
3589;SDS011;1809;48.470;9.226;2023-08-12T04:08:20;5.73;;;5.33;;
3589;SDS011;1809;48.470;9.226;2023-08-12T04:10:47;8.73;;;7.67;;
3589;SDS011;1809;48.470;9.226;2023-08-12T04:13:12;6.27;;;5.73;;
3589;SDS011;1809;48.470;9.226;2023-08-12T04:15:39;7.03;;;6.43;;
3589;SDS011;1809;48.470;9.226;2023-08-12T04:18:04;9.27;;;6.27;;
3589;SDS011;1809;48.470;9.226;2023-08-12T04:20:30;7.37;;;6.77;;
3589;SDS011;1809;48.470;9.226;2023-08-12T04:22:55;10.53;;;6.90;;
3589;SDS011;1809;48.470;9.226;2023-08-12T04:25:21;14.30;;;7.43;;
3589;SDS011;1809;48.470;9.226;2023-08-12T04:27:46;7.93;;;7.23;;
3589;SDS011;1809;48.470;9.226;2023-08-12T04:30:13;8.53;;;7.00;;
3589;SDS011;1809;48.470;9.226;2023-08-12T04:32:39;8.73;;;6.90;;
3589;SDS011;1809;48.470;9.226;2023-08-12T04:35:04;9.93;;;6.70;;
3589;SDS011;1809;48.470;9.226;2023-08-12T04:37:30;6.80;;;6.20;;
3589;SDS011;1809;48.470;9.226;2023-08-12T04:39:57;8.63;;;6.33;;
3589;SDS011;1809;48.470;9.226;2023-08-12T04:42:22;8.10;;;7.43;;
3589;SDS011;1809;48.470;9.226;2023-08-12T04:44:48;7.43;;;6.60;;
3589;SDS011;1809;48.470;9.226;2023-08-12T04:47:13;11.33;;;6.80;;
3589;SDS011;1809;48.470;9.226;2023-08-12T04:49:38;13.07;;;6.23;;
3589;SDS011;1809;48.470;9.226;2023-08-12T04:52:04;6.60;;;6.03;;
3589;SDS011;1809;48.470;9.226;2023-08-12T04:54:30;7.03;;;6.33;;
3589;SDS011;1809;48.470;9.226;2023-08-12T04:56:55;6.53;;;5.93;;
3589;SDS011;1809;48.470;9.226;2023-08-12T04:59:21;6.53;;;5.83;;
3589;SDS011;1809;48.470;9.226;2023-08-12T05:01:47;8.17;;;7.37;;
3589;SDS011;1809;48.470;9.226;2023-08-12T05:04:12;7.07;;;6.40;;
3589;SDS011;1809;48.470;9.226;2023-08-12T05:06:38;8.30;;;6.43;;
3589;SDS011;1809;48.470;9.226;2023-08-12T05:09:03;6.93;;;6.03;;
3589;SDS011;1809;48.470;9.226;2023-08-12T05:11:28;6.93;;;6.20;;
3589;SDS011;1809;48.470;9.226;2023-08-12T05:13:54;7.43;;;6.87;;
3589;SDS011;1809;48.470;9.226;2023-08-12T05:16:19;7.57;;;6.80;;
3589;SDS011;1809;48.470;9.226;2023-08-12T05:18:44;7.73;;;6.97;;
3589;SDS011;1809;48.470;9.226;2023-08-12T05:21:10;8.03;;;5.93;;
3589;SDS011;1809;48.470;9.226;2023-08-12T05:23:35;7.23;;;6.40;;
3589;SDS011;1809;48.470;9.226;2023-08-12T05:26:01;7.80;;;5.73;;
3589;SDS011;1809;48.470;9.226;2023-08-12T05:28:26;6.80;;;5.50;;
3589;SDS011;1809;48.470;9.226;2023-08-12T05:30:51;6.73;;;6.13;;
3589;SDS011;1809;48.470;9.226;2023-08-12T05:33:19;6.67;;;6.17;;
3589;SDS011;1809;48.470;9.226;2023-08-12T05:35:47;9.03;;;5.50;;
3589;SDS011;1809;48.470;9.226;2023-08-12T05:38:13;6.60;;;6.10;;
3589;SDS011;1809;48.470;9.226;2023-08-12T05:40:38;6.60;;;6.10;;
3589;SDS011;1809;48.470;9.226;2023-08-12T05:43:03;7.03;;;6.00;;
3589;SDS011;1809;48.470;9.226;2023-08-12T05:45:29;8.80;;;5.97;;
3589;SDS011;1809;48.470;9.226;2023-08-12T05:47:55;8.73;;;6.33;;
3589;SDS011;1809;48.470;9.226;2023-08-12T05:50:20;6.10;;;5.60;;
3589;SDS011;1809;48.470;9.226;2023-08-12T05:52:46;6.20;;;5.70;;
3589;SDS011;1809;48.470;9.226;2023-08-12T05:55:11;5.70;;;5.20;;
3589;SDS011;1809;48.470;9.226;2023-08-12T05:57:36;9.20;;;6.50;;
3589;SDS011;1809;48.470;9.226;2023-08-12T06:00:02;5.40;;;5.00;;
3589;SDS011;1809;48.470;9.226;2023-08-12T06:02:27;7.83;;;6.43;;
3589;SDS011;1809;48.470;9.226;2023-08-12T06:04:53;7.47;;;6.20;;
3589;SDS011;1809;48.470;9.226;2023-08-12T06:07:18;6.57;;;5.97;;
3589;SDS011;1809;48.470;9.226;2023-08-12T06:09:43;6.47;;;5.87;;
3589;SDS011;1809;48.470;9.226;2023-08-12T06:12:09;5.10;;;4.70;;
3589;SDS011;1809;48.470;9.226;2023-08-12T06:14:36;5.90;;;5.40;;
3589;SDS011;1809;48.470;9.226;2023-08-12T06:17:02;6.43;;;5.87;;
3589;SDS011;1809;48.470;9.226;2023-08-12T06:19:27;8.10;;;5.90;;
3589;SDS011;1809;48.470;9.226;2023-08-12T06:21:53;7.30;;;5.13;;
3589;SDS011;1809;48.470;9.226;2023-08-12T06:24:18;5.70;;;5.20;;
3589;SDS011;1809;48.470;9.226;2023-08-12T06:26:43;5.70;;;5.40;;
3589;SDS011;1809;48.470;9.226;2023-08-12T06:29:09;5.50;;;5.03;;
3589;SDS011;1809;48.470;9.226;2023-08-12T06:31:34;5.60;;;5.30;;
3589;SDS011;1809;48.470;9.226;2023-08-12T06:33:59;6.10;;;5.50;;
3589;SDS011;1809;48.470;9.226;2023-08-12T06:36:25;8.50;;;5.30;;
3589;SDS011;1809;48.470;9.226;2023-08-12T06:38:51;5.20;;;4.90;;
3589;SDS011;1809;48.470;9.226;2023-08-12T06:41:17;5.00;;;4.70;;
3589;SDS011;1809;48.470;9.226;2023-08-12T06:43:42;5.90;;;4.67;;
3589;SDS011;1809;48.470;9.226;2023-08-12T06:46:08;5.97;;;5.50;;
3589;SDS011;1809;48.470;9.226;2023-08-12T06:48:33;6.10;;;5.20;;
3589;SDS011;1809;48.470;9.226;2023-08-12T06:50:58;7.03;;;4.70;;
3589;SDS011;1809;48.470;9.226;2023-08-12T06:53:26;4.87;;;4.47;;
3589;SDS011;1809;48.470;9.226;2023-08-12T06:55:51;5.43;;;5.03;;
3589;SDS011;1809;48.470;9.226;2023-08-12T06:58:17;7.73;;;4.40;;
3589;SDS011;1809;48.470;9.226;2023-08-12T07:00:42;6.03;;;5.43;;
3589;SDS011;1809;48.470;9.226;2023-08-12T07:03:08;5.10;;;4.80;;
3589;SDS011;1809;48.470;9.226;2023-08-12T07:05:33;4.93;;;4.60;;
3589;SDS011;1809;48.470;9.226;2023-08-12T07:07:59;6.73;;;4.87;;
3589;SDS011;1809;48.470;9.226;2023-08-12T07:10:24;6.40;;;5.20;;
3589;SDS011;1809;48.470;9.226;2023-08-12T07:12:49;5.83;;;5.40;;
3589;SDS011;1809;48.470;9.226;2023-08-12T07:15:14;5.03;;;4.63;;
3589;SDS011;1809;48.470;9.226;2023-08-12T07:17:40;6.57;;;5.93;;
3589;SDS011;1809;48.470;9.226;2023-08-12T07:20:07;5.60;;;5.20;;
3589;SDS011;1809;48.470;9.226;2023-08-12T07:22:32;6.93;;;5.37;;
3589;SDS011;1809;48.470;9.226;2023-08-12T07:24:58;5.77;;;5.27;;
3589;SDS011;1809;48.470;9.226;2023-08-12T07:27:25;6.90;;;5.10;;
3589;SDS011;1809;48.470;9.226;2023-08-12T07:29:51;7.23;;;5.20;;
3589;SDS011;1809;48.470;9.226;2023-08-12T07:32:16;5.10;;;4.70;;
3589;SDS011;1809;48.470;9.226;2023-08-12T07:34:41;5.50;;;5.10;;
3589;SDS011;1809;48.470;9.226;2023-08-12T07:37:07;5.37;;;4.97;;
3589;SDS011;1809;48.470;9.226;2023-08-12T07:39:32;5.30;;;4.80;;
3589;SDS011;1809;48.470;9.226;2023-08-12T07:41:57;4.00;;;3.80;;
3589;SDS011;1809;48.470;9.226;2023-08-12T07:44:23;5.27;;;4.20;;
3589;SDS011;1809;48.470;9.226;2023-08-12T07:46:48;4.90;;;4.60;;
3589;SDS011;1809;48.470;9.226;2023-08-12T07:49:15;4.40;;;4.07;;
3589;SDS011;1809;48.470;9.226;2023-08-12T07:51:41;4.37;;;4.07;;
3589;SDS011;1809;48.470;9.226;2023-08-12T07:54:06;4.90;;;4.10;;
3589;SDS011;1809;48.470;9.226;2023-08-12T07:56:31;4.70;;;4.23;;
3589;SDS011;1809;48.470;9.226;2023-08-12T07:58:57;5.60;;;5.10;;
3589;SDS011;1809;48.470;9.226;2023-08-12T08:01:22;4.93;;;4.63;;
3589;SDS011;1809;48.470;9.226;2023-08-12T08:03:48;12.47;;;5.20;;
3589;SDS011;1809;48.470;9.226;2023-08-12T08:06:13;5.37;;;4.97;;
3589;SDS011;1809;48.470;9.226;2023-08-12T08:08:38;6.37;;;5.87;;
3589;SDS011;1809;48.470;9.226;2023-08-12T08:11:04;6.20;;;5.00;;
3589;SDS011;1809;48.470;9.226;2023-08-12T08:13:30;6.27;;;5.73;;
3589;SDS011;1809;48.470;9.226;2023-08-12T08:15:55;6.13;;;5.63;;
3589;SDS011;1809;48.470;9.226;2023-08-12T08:18:20;6.57;;;5.90;;
3589;SDS011;1809;48.470;9.226;2023-08-12T08:20:46;5.93;;;5.47;;
3589;SDS011;1809;48.470;9.226;2023-08-12T08:23:11;6.67;;;6.07;;
3589;SDS011;1809;48.470;9.226;2023-08-12T08:25:36;5.80;;;5.40;;
3589;SDS011;1809;48.470;9.226;2023-08-12T08:28:02;6.20;;;5.70;;
3589;SDS011;1809;48.470;9.226;2023-08-12T08:30:28;6.37;;;5.83;;
3589;SDS011;1809;48.470;9.226;2023-08-12T08:32:54;6.77;;;6.00;;
3589;SDS011;1809;48.470;9.226;2023-08-12T08:35:19;5.90;;;5.30;;
3589;SDS011;1809;48.470;9.226;2023-08-12T08:37:44;8.20;;;4.10;;
3589;SDS011;1809;48.470;9.226;2023-08-12T08:40:10;8.03;;;5.60;;
3589;SDS011;1809;48.470;9.226;2023-08-12T08:42:36;5.50;;;5.00;;
3589;SDS011;1809;48.470;9.226;2023-08-12T08:45:02;5.47;;;5.00;;
3589;SDS011;1809;48.470;9.226;2023-08-12T08:47:31;5.23;;;4.93;;
3589;SDS011;1809;48.470;9.226;2023-08-12T08:49:56;7.47;;;5.97;;
3589;SDS011;1809;48.470;9.226;2023-08-12T08:52:23;6.23;;;5.50;;
3589;SDS011;1809;48.470;9.226;2023-08-12T08:54:49;5.97;;;5.37;;
3589;SDS011;1809;48.470;9.226;2023-08-12T08:57:15;5.13;;;4.70;;
3589;SDS011;1809;48.470;9.226;2023-08-12T08:59:41;8.97;;;5.20;;
3589;SDS011;1809;48.470;9.226;2023-08-12T09:02:07;6.80;;;6.20;;
3589;SDS011;1809;48.470;9.226;2023-08-12T09:04:40;8.20;;;4.83;;
3589;SDS011;1809;48.470;9.226;2023-08-12T09:07:06;4.97;;;4.67;;
3589;SDS011;1809;48.470;9.226;2023-08-12T09:09:31;7.03;;;5.30;;
3589;SDS011;1809;48.470;9.226;2023-08-12T09:11:58;6.00;;;5.43;;
3589;SDS011;1809;48.470;9.226;2023-08-12T09:14:23;6.30;;;5.70;;
3589;SDS011;1809;48.470;9.226;2023-08-12T09:16:49;8.40;;;5.30;;
3589;SDS011;1809;48.470;9.226;2023-08-12T09:19:14;9.47;;;4.23;;
3589;SDS011;1809;48.470;9.226;2023-08-12T09:21:39;5.37;;;4.97;;
3589;SDS011;1809;48.470;9.226;2023-08-12T09:24:07;5.40;;;5.00;;
3589;SDS011;1809;48.470;9.226;2023-08-12T09:26:33;4.87;;;4.53;;
3589;SDS011;1809;48.470;9.226;2023-08-12T09:28:59;7.40;;;4.60;;
3589;SDS011;1809;48.470;9.226;2023-08-12T09:31:29;5.70;;;5.00;;
3589;SDS011;1809;48.470;9.226;2023-08-12T09:33:59;5.20;;;4.70;;
3589;SDS011;1809;48.470;9.226;2023-08-12T09:36:28;4.80;;;4.40;;
3589;SDS011;1809;48.470;9.226;2023-08-12T09:38:55;9.20;;;5.57;;
3589;SDS011;1809;48.470;9.226;2023-08-12T09:41:22;5.27;;;4.43;;
3589;SDS011;1809;48.470;9.226;2023-08-12T09:43:50;5.20;;;4.73;;
3589;SDS011;1809;48.470;9.226;2023-08-12T09:46:16;4.40;;;3.77;;
3589;SDS011;1809;48.470;9.226;2023-08-12T09:48:42;3.40;;;3.20;;
3589;SDS011;1809;48.470;9.226;2023-08-12T09:51:08;4.63;;;3.63;;
3589;SDS011;1809;48.470;9.226;2023-08-12T09:53:34;3.83;;;3.63;;
3589;SDS011;1809;48.470;9.226;2023-08-12T09:56:06;4.67;;;4.30;;
3589;SDS011;1809;48.470;9.226;2023-08-12T09:58:35;3.30;;;3.00;;
3589;SDS011;1809;48.470;9.226;2023-08-12T10:01:02;3.67;;;3.47;;
3589;SDS011;1809;48.470;9.226;2023-08-12T10:03:29;3.63;;;3.53;;
3589;SDS011;1809;48.470;9.226;2023-08-12T10:05:57;7.50;;;3.40;;
3589;SDS011;1809;48.470;9.226;2023-08-12T10:08:23;3.00;;;2.90;;
3589;SDS011;1809;48.470;9.226;2023-08-12T10:10:50;7.70;;;3.57;;
3589;SDS011;1809;48.470;9.226;2023-08-12T10:13:15;4.67;;;3.23;;
3589;SDS011;1809;48.470;9.226;2023-08-12T10:15:41;4.00;;;3.60;;
3589;SDS011;1809;48.470;9.226;2023-08-12T10:18:06;4.77;;;3.83;;
3589;SDS011;1809;48.470;9.226;2023-08-12T10:20:32;3.47;;;3.37;;
3589;SDS011;1809;48.470;9.226;2023-08-12T10:23:01;4.00;;;3.60;;
3589;SDS011;1809;48.470;9.226;2023-08-12T10:25:31;3.90;;;3.70;;
3589;SDS011;1809;48.470;9.226;2023-08-12T10:27:57;9.00;;;4.73;;
3589;SDS011;1809;48.470;9.226;2023-08-12T10:30:22;4.47;;;4.20;;
3589;SDS011;1809;48.470;9.226;2023-08-12T10:32:48;5.10;;;4.27;;
3589;SDS011;1809;48.470;9.226;2023-08-12T10:35:14;3.93;;;3.63;;
3589;SDS011;1809;48.470;9.226;2023-08-12T10:37:40;5.50;;;4.20;;
3589;SDS011;1809;48.470;9.226;2023-08-12T10:40:05;3.63;;;3.53;;
3589;SDS011;1809;48.470;9.226;2023-08-12T10:42:40;9.83;;;3.73;;
3589;SDS011;1809;48.470;9.226;2023-08-12T10:45:10;3.67;;;3.47;;
3589;SDS011;1809;48.470;9.226;2023-08-12T10:47:43;4.40;;;4.20;;
3589;SDS011;1809;48.470;9.226;2023-08-12T10:50:19;4.07;;;3.67;;
3589;SDS011;1809;48.470;9.226;2023-08-12T10:52:46;5.30;;;3.93;;
3589;SDS011;1809;48.470;9.226;2023-08-12T10:55:19;3.73;;;3.53;;
3589;SDS011;1809;48.470;9.226;2023-08-12T10:57:47;4.97;;;4.47;;
3589;SDS011;1809;48.470;9.226;2023-08-12T11:00:24;3.73;;;3.53;;
3589;SDS011;1809;48.470;9.226;2023-08-12T11:02:54;3.70;;;3.50;;
3589;SDS011;1809;48.470;9.226;2023-08-12T11:05:21;10.90;;;3.87;;
3589;SDS011;1809;48.470;9.226;2023-08-12T11:10:21;4.17;;;3.80;;
3589;SDS011;1809;48.470;9.226;2023-08-12T11:17:55;6.97;;;3.83;;
3589;SDS011;1809;48.470;9.226;2023-08-12T11:20:20;3.70;;;3.40;;
3589;SDS011;1809;48.470;9.226;2023-08-12T11:22:45;3.23;;;2.87;;
3589;SDS011;1809;48.470;9.226;2023-08-12T11:25:11;3.50;;;3.30;;
3589;SDS011;1809;48.470;9.226;2023-08-12T11:27:39;3.10;;;2.80;;
3589;SDS011;1809;48.470;9.226;2023-08-12T11:30:19;3.00;;;2.80;;
3589;SDS011;1809;48.470;9.226;2023-08-12T11:32:46;2.90;;;2.47;;
3589;SDS011;1809;48.470;9.226;2023-08-12T11:35:13;2.60;;;2.50;;
3589;SDS011;1809;48.470;9.226;2023-08-12T11:37:41;2.03;;;1.93;;
3589;SDS011;1809;48.470;9.226;2023-08-12T11:40:08;2.57;;;2.47;;
3589;SDS011;1809;48.470;9.226;2023-08-12T11:42:38;3.10;;;2.90;;
3589;SDS011;1809;48.470;9.226;2023-08-12T11:45:05;2.80;;;2.70;;
3589;SDS011;1809;48.470;9.226;2023-08-12T11:47:32;4.20;;;3.33;;
3589;SDS011;1809;48.470;9.226;2023-08-12T11:49:58;2.60;;;2.40;;
3589;SDS011;1809;48.470;9.226;2023-08-12T11:52:23;2.97;;;2.80;;
3589;SDS011;1809;48.470;9.226;2023-08-12T11:54:49;2.47;;;2.37;;
3589;SDS011;1809;48.470;9.226;2023-08-12T11:57:15;3.43;;;2.50;;
3589;SDS011;1809;48.470;9.226;2023-08-12T11:59:42;3.33;;;3.03;;
3589;SDS011;1809;48.470;9.226;2023-08-12T12:02:07;6.40;;;3.03;;
3589;SDS011;1809;48.470;9.226;2023-08-12T12:04:32;4.40;;;2.50;;
3589;SDS011;1809;48.470;9.226;2023-08-12T12:06:59;2.97;;;2.80;;
3589;SDS011;1809;48.470;9.226;2023-08-12T12:09:25;2.67;;;2.57;;
3589;SDS011;1809;48.470;9.226;2023-08-12T12:11:54;3.00;;;2.80;;
3589;SDS011;1809;48.470;9.226;2023-08-12T12:14:20;5.53;;;3.20;;
3589;SDS011;1809;48.470;9.226;2023-08-12T12:16:47;2.83;;;2.73;;
3589;SDS011;1809;48.470;9.226;2023-08-12T12:21:49;3.10;;;3.00;;
3589;SDS011;1809;48.470;9.226;2023-08-12T12:24:18;3.63;;;3.00;;
3589;SDS011;1809;48.470;9.226;2023-08-12T12:26:44;4.30;;;3.90;;
3589;SDS011;1809;48.470;9.226;2023-08-12T12:29:12;3.37;;;3.17;;
3589;SDS011;1809;48.470;9.226;2023-08-12T12:31:38;4.00;;;3.10;;
3589;SDS011;1809;48.470;9.226;2023-08-12T12:34:04;3.07;;;2.87;;
3589;SDS011;1809;48.470;9.226;2023-08-12T12:36:39;2.87;;;2.77;;
3589;SDS011;1809;48.470;9.226;2023-08-12T12:39:05;4.13;;;3.13;;
3589;SDS011;1809;48.470;9.226;2023-08-12T12:41:32;4.90;;;3.93;;
3589;SDS011;1809;48.470;9.226;2023-08-12T12:43:59;3.73;;;3.43;;
3589;SDS011;1809;48.470;9.226;2023-08-12T12:46:25;5.27;;;4.23;;
3589;SDS011;1809;48.470;9.226;2023-08-12T12:48:51;5.23;;;4.33;;
3589;SDS011;1809;48.470;9.226;2023-08-12T12:51:16;5.70;;;3.70;;
3589;SDS011;1809;48.470;9.226;2023-08-12T12:53:41;7.30;;;4.73;;
3589;SDS011;1809;48.470;9.226;2023-08-12T12:56:07;14.27;;;5.37;;
3589;SDS011;1809;48.470;9.226;2023-08-12T12:58:33;5.40;;;4.90;;
3589;SDS011;1809;48.470;9.226;2023-08-12T13:01:00;6.60;;;6.00;;
3589;SDS011;1809;48.470;9.226;2023-08-12T13:03:26;10.40;;;6.33;;
3589;SDS011;1809;48.470;9.226;2023-08-12T13:05:51;11.67;;;7.00;;
3589;SDS011;1809;48.470;9.226;2023-08-12T13:08:17;13.20;;;7.30;;
3589;SDS011;1809;48.470;9.226;2023-08-12T13:10:42;6.67;;;5.93;;
3589;SDS011;1809;48.470;9.226;2023-08-12T13:13:08;8.80;;;6.57;;
3589;SDS011;1809;48.470;9.226;2023-08-12T13:15:33;8.87;;;7.03;;
3589;SDS011;1809;48.470;9.226;2023-08-12T13:17:59;8.83;;;7.27;;
3589;SDS011;1809;48.470;9.226;2023-08-12T13:20:25;15.13;;;7.47;;
3589;SDS011;1809;48.470;9.226;2023-08-12T13:22:50;8.23;;;7.43;;
3589;SDS011;1809;48.470;9.226;2023-08-12T13:25:15;8.80;;;6.90;;
3589;SDS011;1809;48.470;9.226;2023-08-12T13:27:41;8.07;;;7.23;;
3589;SDS011;1809;48.470;9.226;2023-08-12T13:30:07;9.43;;;7.73;;
3589;SDS011;1809;48.470;9.226;2023-08-12T13:32:33;7.93;;;7.20;;
3589;SDS011;1809;48.470;9.226;2023-08-12T13:34:58;10.90;;;7.97;;
3589;SDS011;1809;48.470;9.226;2023-08-12T13:37:23;10.87;;;7.90;;
3589;SDS011;1809;48.470;9.226;2023-08-12T13:39:49;10.63;;;9.53;;
3589;SDS011;1809;48.470;9.226;2023-08-12T13:42:14;11.77;;;9.00;;
3589;SDS011;1809;48.470;9.226;2023-08-12T13:44:39;11.47;;;8.30;;
3589;SDS011;1809;48.470;9.226;2023-08-12T13:47:05;9.90;;;8.40;;
3589;SDS011;1809;48.470;9.226;2023-08-12T13:49:31;7.53;;;6.83;;
3589;SDS011;1809;48.470;9.226;2023-08-12T13:51:56;9.20;;;7.30;;
3589;SDS011;1809;48.470;9.226;2023-08-12T13:54:22;8.10;;;6.93;;
3589;SDS011;1809;48.470;9.226;2023-08-12T13:56:47;8.00;;;6.40;;
3589;SDS011;1809;48.470;9.226;2023-08-12T13:59:12;8.50;;;5.40;;
3589;SDS011;1809;48.470;9.226;2023-08-12T14:01:37;5.77;;;5.27;;
3589;SDS011;1809;48.470;9.226;2023-08-12T14:04:03;9.83;;;4.10;;
3589;SDS011;1809;48.470;9.226;2023-08-12T14:06:29;6.30;;;4.60;;
3589;SDS011;1809;48.470;9.226;2023-08-12T14:08:54;7.60;;;4.53;;
3589;SDS011;1809;48.470;9.226;2023-08-12T14:11:19;3.83;;;3.50;;
3589;SDS011;1809;48.470;9.226;2023-08-12T14:13:45;6.60;;;4.10;;
3589;SDS011;1809;48.470;9.226;2023-08-12T14:16:11;5.90;;;4.60;;
3589;SDS011;1809;48.470;9.226;2023-08-12T14:18:36;4.00;;;3.57;;
3589;SDS011;1809;48.470;9.226;2023-08-12T14:21:02;4.30;;;4.00;;
3589;SDS011;1809;48.470;9.226;2023-08-12T14:23:27;4.47;;;4.17;;
3589;SDS011;1809;48.470;9.226;2023-08-12T14:25:52;7.37;;;3.90;;
3589;SDS011;1809;48.470;9.226;2023-08-12T14:28:18;5.40;;;3.90;;
3589;SDS011;1809;48.470;9.226;2023-08-12T14:30:44;4.50;;;3.40;;
3589;SDS011;1809;48.470;9.226;2023-08-12T14:33:09;3.43;;;3.07;;
3589;SDS011;1809;48.470;9.226;2023-08-12T14:35:34;3.00;;;2.80;;
3589;SDS011;1809;48.470;9.226;2023-08-12T14:38:00;2.90;;;2.60;;
3589;SDS011;1809;48.470;9.226;2023-08-12T14:40:26;2.67;;;2.47;;
3589;SDS011;1809;48.470;9.226;2023-08-12T14:42:51;3.00;;;2.90;;
3589;SDS011;1809;48.470;9.226;2023-08-12T14:45:16;5.23;;;3.50;;
3589;SDS011;1809;48.470;9.226;2023-08-12T14:47:42;4.57;;;3.20;;
3589;SDS011;1809;48.470;9.226;2023-08-12T14:50:07;3.40;;;3.10;;
3589;SDS011;1809;48.470;9.226;2023-08-12T14:52:33;3.50;;;3.30;;
3589;SDS011;1809;48.470;9.226;2023-08-12T14:54:59;3.10;;;2.87;;
3589;SDS011;1809;48.470;9.226;2023-08-12T14:57:24;3.70;;;3.47;;
3589;SDS011;1809;48.470;9.226;2023-08-12T14:59:50;3.30;;;3.20;;
3589;SDS011;1809;48.470;9.226;2023-08-12T15:02:16;4.47;;;4.07;;
3589;SDS011;1809;48.470;9.226;2023-08-12T15:04:42;5.37;;;3.73;;
3589;SDS011;1809;48.470;9.226;2023-08-12T15:07:08;3.73;;;3.50;;
3589;SDS011;1809;48.470;9.226;2023-08-12T15:09:33;4.50;;;4.00;;
3589;SDS011;1809;48.470;9.226;2023-08-12T15:11:58;3.77;;;3.53;;
3589;SDS011;1809;48.470;9.226;2023-08-12T15:14:24;3.90;;;3.63;;
3589;SDS011;1809;48.470;9.226;2023-08-12T15:16:50;4.77;;;4.23;;
3589;SDS011;1809;48.470;9.226;2023-08-12T15:19:16;5.37;;;4.47;;
3589;SDS011;1809;48.470;9.226;2023-08-12T15:21:41;5.67;;;5.03;;